Lemhi County Airport Salmon US
ICAO: KSMN
IATA: SMN
Category: Medium
Scheduled Services: No

Elevation: 4043 ft
TransAlt. 18000 ft.

Airport Communications:
AWOS 3:135.075
SALT LAKE CITY CNTR:132.4
BOISE RDO:122.55
CTAF/UNICOM:122.8

KSMN Zoom In..

If you have problems with the map follow the link
https://www.worldairports.se/pages/airport.php?
ICAO=KSMN

Runways:

(A) RW 17 length 5150 ft width 60 ft
---- / hdg 172

(B) RW 35 length 5150 ft width 60 ft
---- / hdg 352

Location; KSMN
Day. 07 / Time. 08.56 Zulu
* Altimeter: 30.04
* Temperature: -06° c. -21.2°f.
* Wind from: 070° Speed 03 kn.
Dewpoint: -07° c.
Visibility: 10 Statute Miles.
Clouds: Clear (automated report).

KSMN 070856Z AUTO 07003KT 10SM CLR M06/M07 A3004 RMK AO2 SLP212 T10611072 56015 FZRANO


Wind From 070°
Speed 03 kn.

 
 
jpsmedia worldairports.se 2019   terms of use